sensor_id;sensor_type;location;lat;lon;timestamp;P1;durP1;ratioP1;P2;durP2;ratioP2
78901;SDS011;70441;44.758;37.686;2023-08-07T00:00:47;13.45;;;6.57;;
78901;SDS011;70441;44.758;37.686;2023-08-07T00:01:48;10.70;;;7.07;;
78901;SDS011;70441;44.758;37.686;2023-08-07T00:02:49;11.13;;;7.07;;
78901;SDS011;70441;44.758;37.686;2023-08-07T00:03:50;12.10;;;7.13;;
78901;SDS011;70441;44.758;37.686;2023-08-07T00:04:52;11.75;;;6.47;;
78901;SDS011;70441;44.758;37.686;2023-08-07T00:05:53;10.20;;;6.50;;
78901;SDS011;70441;44.758;37.686;2023-08-07T00:06:55;10.57;;;7.13;;
78901;SDS011;70441;44.758;37.686;2023-08-07T00:07:57;11.35;;;6.75;;
78901;SDS011;70441;44.758;37.686;2023-08-07T00:08:58;12.00;;;7.07;;
78901;SDS011;70441;44.758;37.686;2023-08-07T00:09:59;9.60;;;7.07;;
78901;SDS011;70441;44.758;37.686;2023-08-07T00:12:06;12.90;;;7.72;;
78901;SDS011;70441;44.758;37.686;2023-08-07T00:13:07;12.52;;;6.65;;
78901;SDS011;70441;44.758;37.686;2023-08-07T00:14:09;10.07;;;7.57;;
78901;SDS011;70441;44.758;37.686;2023-08-07T00:15:10;14.15;;;7.15;;
78901;SDS011;70441;44.758;37.686;2023-08-07T00:17:13;12.18;;;7.03;;
78901;SDS011;70441;44.758;37.686;2023-08-07T00:18:15;10.38;;;7.30;;
78901;SDS011;70441;44.758;37.686;2023-08-07T00:19:16;13.57;;;7.47;;
78901;SDS011;70441;44.758;37.686;2023-08-07T00:20:17;10.77;;;7.40;;
78901;SDS011;70441;44.758;37.686;2023-08-07T00:21:22;15.48;;;7.82;;
78901;SDS011;70441;44.758;37.686;2023-08-07T00:23:27;11.63;;;6.65;;
78901;SDS011;70441;44.758;37.686;2023-08-07T00:24:36;11.40;;;7.10;;
78901;SDS011;70441;44.758;37.686;2023-08-07T00:25:42;11.40;;;6.63;;
78901;SDS011;70441;44.758;37.686;2023-08-07T00:26:43;9.90;;;6.88;;
78901;SDS011;70441;44.758;37.686;2023-08-07T00:27:45;13.90;;;7.15;;
78901;SDS011;70441;44.758;37.686;2023-08-07T00:28:48;11.52;;;7.05;;
78901;SDS011;70441;44.758;37.686;2023-08-07T00:29:49;12.02;;;7.85;;
78901;SDS011;70441;44.758;37.686;2023-08-07T00:30:53;10.77;;;7.32;;
78901;SDS011;70441;44.758;37.686;2023-08-07T00:31:59;11.45;;;6.72;;
78901;SDS011;70441;44.758;37.686;2023-08-07T00:33:05;12.30;;;6.82;;
78901;SDS011;70441;44.758;37.686;2023-08-07T00:34:06;9.77;;;7.25;;
78901;SDS011;70441;44.758;37.686;2023-08-07T00:35:10;10.35;;;7.03;;
78901;SDS011;70441;44.758;37.686;2023-08-07T00:36:18;11.48;;;7.32;;
78901;SDS011;70441;44.758;37.686;2023-08-07T00:37:22;12.82;;;7.93;;
78901;SDS011;70441;44.758;37.686;2023-08-07T00:38:25;12.00;;;7.20;;
78901;SDS011;70441;44.758;37.686;2023-08-07T00:39:29;9.75;;;7.40;;
78901;SDS011;70441;44.758;37.686;2023-08-07T00:40:37;10.85;;;7.10;;
78901;SDS011;70441;44.758;37.686;2023-08-07T00:41:42;9.52;;;6.85;;
78901;SDS011;70441;44.758;37.686;2023-08-07T00:42:47;10.88;;;7.63;;
78901;SDS011;70441;44.758;37.686;2023-08-07T00:43:50;11.77;;;6.97;;
78901;SDS011;70441;44.758;37.686;2023-08-07T00:44:53;10.63;;;6.85;;
78901;SDS011;70441;44.758;37.686;2023-08-07T00:45:56;12.65;;;7.10;;
78901;SDS011;70441;44.758;37.686;2023-08-07T00:46:58;9.43;;;7.32;;
78901;SDS011;70441;44.758;37.686;2023-08-07T00:48:00;11.60;;;7.57;;
78901;SDS011;70441;44.758;37.686;2023-08-07T00:49:06;14.15;;;7.10;;
78901;SDS011;70441;44.758;37.686;2023-08-07T00:50:12;9.48;;;7.30;;
78901;SDS011;70441;44.758;37.686;2023-08-07T00:51:13;12.15;;;7.43;;
78901;SDS011;70441;44.758;37.686;2023-08-07T00:52:18;13.25;;;7.63;;
78901;SDS011;70441;44.758;37.686;2023-08-07T00:53:21;10.90;;;7.88;;
78901;SDS011;70441;44.758;37.686;2023-08-07T00:54:25;16.85;;;7.30;;
78901;SDS011;70441;44.758;37.686;2023-08-07T00:55:28;15.32;;;7.35;;
78901;SDS011;70441;44.758;37.686;2023-08-07T00:56:33;9.77;;;7.55;;
78901;SDS011;70441;44.758;37.686;2023-08-07T00:57:35;10.13;;;7.05;;
78901;SDS011;70441;44.758;37.686;2023-08-07T00:58:39;11.38;;;7.43;;
78901;SDS011;70441;44.758;37.686;2023-08-07T00:59:41;10.60;;;7.53;;
78901;SDS011;70441;44.758;37.686;2023-08-07T01:00:48;16.13;;;7.63;;
78901;SDS011;70441;44.758;37.686;2023-08-07T01:01:50;12.43;;;7.03;;
78901;SDS011;70441;44.758;37.686;2023-08-07T01:02:52;13.05;;;7.47;;
78901;SDS011;70441;44.758;37.686;2023-08-07T01:03:56;10.75;;;8.07;;
78901;SDS011;70441;44.758;37.686;2023-08-07T01:04:58;10.50;;;7.05;;
78901;SDS011;70441;44.758;37.686;2023-08-07T01:06:02;9.65;;;6.70;;
78901;SDS011;70441;44.758;37.686;2023-08-07T01:07:04;10.88;;;7.72;;
78901;SDS011;70441;44.758;37.686;2023-08-07T01:08:06;11.05;;;7.60;;
78901;SDS011;70441;44.758;37.686;2023-08-07T01:09:10;12.70;;;7.28;;
78901;SDS011;70441;44.758;37.686;2023-08-07T01:10:15;12.98;;;7.53;;
78901;SDS011;70441;44.758;37.686;2023-08-07T01:11:24;13.40;;;7.90;;
78901;SDS011;70441;44.758;37.686;2023-08-07T01:12:33;13.75;;;7.07;;
78901;SDS011;70441;44.758;37.686;2023-08-07T01:15:30;13.32;;;7.30;;
78901;SDS011;70441;44.758;37.686;2023-08-07T01:17:55;13.57;;;7.90;;
78901;SDS011;70441;44.758;37.686;2023-08-07T01:18:57;12.63;;;7.82;;
78901;SDS011;70441;44.758;37.686;2023-08-07T01:20:01;12.68;;;8.02;;
78901;SDS011;70441;44.758;37.686;2023-08-07T01:22:10;9.43;;;7.15;;
78901;SDS011;70441;44.758;37.686;2023-08-07T01:23:13;12.45;;;7.82;;
78901;SDS011;70441;44.758;37.686;2023-08-07T01:24:15;11.57;;;7.95;;
78901;SDS011;70441;44.758;37.686;2023-08-07T01:25:16;11.73;;;9.07;;
78901;SDS011;70441;44.758;37.686;2023-08-07T01:26:19;13.30;;;9.02;;
78901;SDS011;70441;44.758;37.686;2023-08-07T01:28:45;10.50;;;7.88;;
78901;SDS011;70441;44.758;37.686;2023-08-07T01:31:09;12.07;;;7.90;;
78901;SDS011;70441;44.758;37.686;2023-08-07T01:32:16;16.98;;;8.68;;
78901;SDS011;70441;44.758;37.686;2023-08-07T01:33:26;11.05;;;7.72;;
78901;SDS011;70441;44.758;37.686;2023-08-07T01:34:35;10.18;;;7.65;;
78901;SDS011;70441;44.758;37.686;2023-08-07T01:35:43;9.45;;;7.25;;
78901;SDS011;70441;44.758;37.686;2023-08-07T01:36:47;13.35;;;7.60;;
78901;SDS011;70441;44.758;37.686;2023-08-07T01:37:49;11.60;;;7.65;;
78901;SDS011;70441;44.758;37.686;2023-08-07T01:38:52;12.65;;;7.60;;
78901;SDS011;70441;44.758;37.686;2023-08-07T01:39:54;10.07;;;7.57;;
78901;SDS011;70441;44.758;37.686;2023-08-07T01:40:58;14.63;;;7.43;;
78901;SDS011;70441;44.758;37.686;2023-08-07T01:42:02;9.15;;;7.50;;
78901;SDS011;70441;44.758;37.686;2023-08-07T01:43:05;11.85;;;7.60;;
78901;SDS011;70441;44.758;37.686;2023-08-07T01:44:08;11.63;;;7.30;;
78901;SDS011;70441;44.758;37.686;2023-08-07T01:45:10;12.95;;;8.52;;
78901;SDS011;70441;44.758;37.686;2023-08-07T01:46:11;9.50;;;7.15;;
78901;SDS011;70441;44.758;37.686;2023-08-07T01:47:12;9.23;;;7.38;;
78901;SDS011;70441;44.758;37.686;2023-08-07T01:48:14;12.52;;;8.02;;
78901;SDS011;70441;44.758;37.686;2023-08-07T01:49:15;10.95;;;8.10;;
78901;SDS011;70441;44.758;37.686;2023-08-07T01:50:20;10.77;;;7.55;;
78901;SDS011;70441;44.758;37.686;2023-08-07T01:51:23;12.15;;;9.00;;
78901;SDS011;70441;44.758;37.686;2023-08-07T01:52:25;11.75;;;7.95;;
78901;SDS011;70441;44.758;37.686;2023-08-07T01:53:26;14.95;;;8.60;;
78901;SDS011;70441;44.758;37.686;2023-08-07T01:55:29;11.00;;;7.22;;
78901;SDS011;70441;44.758;37.686;2023-08-07T01:56:31;14.15;;;8.35;;
78901;SDS011;70441;44.758;37.686;2023-08-07T01:57:32;12.45;;;7.70;;
78901;SDS011;70441;44.758;37.686;2023-08-07T01:58:34;10.20;;;6.95;;
78901;SDS011;70441;44.758;37.686;2023-08-07T01:59:36;10.27;;;7.20;;
78901;SDS011;70441;44.758;37.686;2023-08-07T02:00:38;11.55;;;8.05;;
78901;SDS011;70441;44.758;37.686;2023-08-07T02:01:39;10.13;;;7.68;;
78901;SDS011;70441;44.758;37.686;2023-08-07T02:02:40;11.02;;;7.75;;
78901;SDS011;70441;44.758;37.686;2023-08-07T02:03:42;14.10;;;8.10;;
78901;SDS011;70441;44.758;37.686;2023-08-07T02:04:43;11.90;;;7.80;;
78901;SDS011;70441;44.758;37.686;2023-08-07T02:05:45;10.93;;;7.65;;
78901;SDS011;70441;44.758;37.686;2023-08-07T02:06:47;11.55;;;8.20;;
78901;SDS011;70441;44.758;37.686;2023-08-07T02:07:48;12.43;;;8.60;;
78901;SDS011;70441;44.758;37.686;2023-08-07T02:08:49;12.77;;;8.40;;
78901;SDS011;70441;44.758;37.686;2023-08-07T02:09:51;10.70;;;7.88;;
78901;SDS011;70441;44.758;37.686;2023-08-07T02:10:52;16.27;;;8.30;;
78901;SDS011;70441;44.758;37.686;2023-08-07T02:11:54;11.00;;;8.20;;
78901;SDS011;70441;44.758;37.686;2023-08-07T02:12:57;11.52;;;8.00;;
78901;SDS011;70441;44.758;37.686;2023-08-07T02:14:00;12.20;;;8.43;;
78901;SDS011;70441;44.758;37.686;2023-08-07T02:15:02;12.63;;;8.38;;
78901;SDS011;70441;44.758;37.686;2023-08-07T02:16:05;10.43;;;7.35;;
78901;SDS011;70441;44.758;37.686;2023-08-07T02:17:06;10.15;;;8.40;;
78901;SDS011;70441;44.758;37.686;2023-08-07T02:18:08;12.30;;;8.57;;
78901;SDS011;70441;44.758;37.686;2023-08-07T02:19:09;11.98;;;8.80;;
78901;SDS011;70441;44.758;37.686;2023-08-07T02:20:10;12.13;;;9.05;;
78901;SDS011;70441;44.758;37.686;2023-08-07T02:21:12;10.60;;;8.70;;
78901;SDS011;70441;44.758;37.686;2023-08-07T02:22:13;18.52;;;9.80;;
78901;SDS011;70441;44.758;37.686;2023-08-07T02:23:14;12.68;;;8.75;;
78901;SDS011;70441;44.758;37.686;2023-08-07T02:24:16;14.05;;;8.93;;
78901;SDS011;70441;44.758;37.686;2023-08-07T02:25:18;12.75;;;9.18;;
78901;SDS011;70441;44.758;37.686;2023-08-07T02:26:20;10.18;;;9.00;;
78901;SDS011;70441;44.758;37.686;2023-08-07T02:27:21;10.65;;;9.15;;
78901;SDS011;70441;44.758;37.686;2023-08-07T02:28:22;12.15;;;9.57;;
78901;SDS011;70441;44.758;37.686;2023-08-07T02:29:24;11.30;;;8.93;;
78901;SDS011;70441;44.758;37.686;2023-08-07T02:30:25;11.18;;;8.98;;
78901;SDS011;70441;44.758;37.686;2023-08-07T02:31:26;11.23;;;8.55;;
78901;SDS011;70441;44.758;37.686;2023-08-07T02:33:31;13.50;;;8.73;;
78901;SDS011;70441;44.758;37.686;2023-08-07T02:34:34;22.38;;;9.32;;
78901;SDS011;70441;44.758;37.686;2023-08-07T02:35:35;17.65;;;9.55;;
78901;SDS011;70441;44.758;37.686;2023-08-07T02:36:36;12.63;;;8.82;;
78901;SDS011;70441;44.758;37.686;2023-08-07T02:37:38;12.68;;;8.75;;
78901;SDS011;70441;44.758;37.686;2023-08-07T02:39:42;9.90;;;8.13;;
78901;SDS011;70441;44.758;37.686;2023-08-07T02:40:43;15.45;;;9.02;;
78901;SDS011;70441;44.758;37.686;2023-08-07T02:41:45;12.00;;;9.00;;
78901;SDS011;70441;44.758;37.686;2023-08-07T02:42:46;11.27;;;8.85;;
78901;SDS011;70441;44.758;37.686;2023-08-07T02:43:48;11.52;;;8.90;;
78901;SDS011;70441;44.758;37.686;2023-08-07T02:44:49;12.40;;;9.48;;
78901;SDS011;70441;44.758;37.686;2023-08-07T02:45:51;9.60;;;8.32;;
78901;SDS011;70441;44.758;37.686;2023-08-07T02:47:54;10.70;;;8.63;;
78901;SDS011;70441;44.758;37.686;2023-08-07T02:48:57;9.57;;;8.40;;
78901;SDS011;70441;44.758;37.686;2023-08-07T02:49:58;10.50;;;8.13;;
78901;SDS011;70441;44.758;37.686;2023-08-07T02:51:00;15.15;;;8.13;;
78901;SDS011;70441;44.758;37.686;2023-08-07T02:52:01;23.83;;;10.88;;
78901;SDS011;70441;44.758;37.686;2023-08-07T02:53:03;13.55;;;8.13;;
78901;SDS011;70441;44.758;37.686;2023-08-07T02:54:04;15.95;;;8.55;;
78901;SDS011;70441;44.758;37.686;2023-08-07T02:55:05;12.45;;;8.02;;
78901;SDS011;70441;44.758;37.686;2023-08-07T02:56:07;21.45;;;10.23;;
78901;SDS011;70441;44.758;37.686;2023-08-07T02:57:09;12.13;;;8.02;;
78901;SDS011;70441;44.758;37.686;2023-08-07T02:58:10;10.73;;;8.18;;
78901;SDS011;70441;44.758;37.686;2023-08-07T02:59:12;12.13;;;8.07;;
78901;SDS011;70441;44.758;37.686;2023-08-07T03:00:13;9.55;;;8.15;;
78901;SDS011;70441;44.758;37.686;2023-08-07T03:01:15;11.95;;;8.20;;
78901;SDS011;70441;44.758;37.686;2023-08-07T03:02:16;9.88;;;7.80;;
78901;SDS011;70441;44.758;37.686;2023-08-07T03:03:17;9.45;;;7.90;;
78901;SDS011;70441;44.758;37.686;2023-08-07T03:04:19;13.32;;;8.27;;
78901;SDS011;70441;44.758;37.686;2023-08-07T03:05:20;10.88;;;7.88;;
78901;SDS011;70441;44.758;37.686;2023-08-07T03:06:21;10.95;;;7.57;;
78901;SDS011;70441;44.758;37.686;2023-08-07T03:07:23;9.90;;;7.47;;
78901;SDS011;70441;44.758;37.686;2023-08-07T03:08:24;12.52;;;6.97;;
78901;SDS011;70441;44.758;37.686;2023-08-07T03:09:29;13.40;;;7.13;;
78901;SDS011;70441;44.758;37.686;2023-08-07T03:10:30;14.93;;;6.93;;
78901;SDS011;70441;44.758;37.686;2023-08-07T03:11:31;10.70;;;7.28;;
78901;SDS011;70441;44.758;37.686;2023-08-07T03:12:33;7.82;;;6.13;;
78901;SDS011;70441;44.758;37.686;2023-08-07T03:13:34;12.05;;;7.03;;
78901;SDS011;70441;44.758;37.686;2023-08-07T03:14:35;8.90;;;7.10;;
78901;SDS011;70441;44.758;37.686;2023-08-07T03:15:36;13.90;;;6.53;;
78901;SDS011;70441;44.758;37.686;2023-08-07T03:16:38;12.00;;;7.00;;
78901;SDS011;70441;44.758;37.686;2023-08-07T03:17:39;13.48;;;6.05;;
78901;SDS011;70441;44.758;37.686;2023-08-07T03:18:41;10.63;;;6.35;;
78901;SDS011;70441;44.758;37.686;2023-08-07T03:19:42;10.63;;;6.07;;
78901;SDS011;70441;44.758;37.686;2023-08-07T03:21:46;9.02;;;6.20;;
78901;SDS011;70441;44.758;37.686;2023-08-07T03:22:47;12.05;;;6.60;;
78901;SDS011;70441;44.758;37.686;2023-08-07T03:23:49;8.27;;;6.53;;
78901;SDS011;70441;44.758;37.686;2023-08-07T03:24:51;10.77;;;6.47;;
78901;SDS011;70441;44.758;37.686;2023-08-07T03:26:07;29.38;;;9.52;;
78901;SDS011;70441;44.758;37.686;2023-08-07T03:27:11;23.38;;;8.40;;
78901;SDS011;70441;44.758;37.686;2023-08-07T03:28:12;25.55;;;7.38;;
78901;SDS011;70441;44.758;37.686;2023-08-07T03:29:14;10.75;;;6.53;;
78901;SDS011;70441;44.758;37.686;2023-08-07T03:30:16;9.05;;;6.00;;
78901;SDS011;70441;44.758;37.686;2023-08-07T03:31:18;11.85;;;6.20;;
78901;SDS011;70441;44.758;37.686;2023-08-07T03:32:21;11.30;;;6.80;;
78901;SDS011;70441;44.758;37.686;2023-08-07T03:33:23;10.00;;;6.22;;
78901;SDS011;70441;44.758;37.686;2023-08-07T03:35:26;11.27;;;6.30;;
78901;SDS011;70441;44.758;37.686;2023-08-07T03:36:27;9.23;;;6.57;;
78901;SDS011;70441;44.758;37.686;2023-08-07T03:37:28;9.55;;;5.55;;
78901;SDS011;70441;44.758;37.686;2023-08-07T03:38:30;11.05;;;6.22;;
78901;SDS011;70441;44.758;37.686;2023-08-07T03:39:32;9.50;;;5.55;;
78901;SDS011;70441;44.758;37.686;2023-08-07T03:40:33;9.25;;;5.75;;
78901;SDS011;70441;44.758;37.686;2023-08-07T03:41:35;8.88;;;5.65;;
78901;SDS011;70441;44.758;37.686;2023-08-07T03:42:36;9.02;;;5.95;;
78901;SDS011;70441;44.758;37.686;2023-08-07T03:43:38;16.98;;;7.05;;
78901;SDS011;70441;44.758;37.686;2023-08-07T03:44:39;8.80;;;5.38;;
78901;SDS011;70441;44.758;37.686;2023-08-07T03:45:41;10.27;;;5.63;;
78901;SDS011;70441;44.758;37.686;2023-08-07T03:46:42;11.07;;;5.53;;
78901;SDS011;70441;44.758;37.686;2023-08-07T03:47:43;9.88;;;5.68;;
78901;SDS011;70441;44.758;37.686;2023-08-07T03:48:45;9.23;;;5.15;;
78901;SDS011;70441;44.758;37.686;2023-08-07T03:49:46;13.80;;;5.43;;
78901;SDS011;70441;44.758;37.686;2023-08-07T03:50:47;8.32;;;4.60;;
78901;SDS011;70441;44.758;37.686;2023-08-07T03:51:49;11.38;;;4.90;;
78901;SDS011;70441;44.758;37.686;2023-08-07T03:52:50;13.75;;;5.63;;
78901;SDS011;70441;44.758;37.686;2023-08-07T03:53:53;8.70;;;5.80;;
78901;SDS011;70441;44.758;37.686;2023-08-07T03:54:55;8.68;;;5.07;;
78901;SDS011;70441;44.758;37.686;2023-08-07T03:55:57;9.05;;;4.68;;
78901;SDS011;70441;44.758;37.686;2023-08-07T03:56:59;7.78;;;4.68;;
78901;SDS011;70441;44.758;37.686;2023-08-07T03:58:01;8.57;;;4.82;;
78901;SDS011;70441;44.758;37.686;2023-08-07T03:59:02;11.07;;;5.15;;
78901;SDS011;70441;44.758;37.686;2023-08-07T04:00:05;14.20;;;5.05;;
78901;SDS011;70441;44.758;37.686;2023-08-07T04:01:14;8.57;;;4.80;;
78901;SDS011;70441;44.758;37.686;2023-08-07T04:02:15;11.25;;;4.97;;
78901;SDS011;70441;44.758;37.686;2023-08-07T04:03:18;9.57;;;5.05;;
78901;SDS011;70441;44.758;37.686;2023-08-07T04:04:20;11.63;;;4.72;;
78901;SDS011;70441;44.758;37.686;2023-08-07T04:05:22;7.57;;;4.78;;
78901;SDS011;70441;44.758;37.686;2023-08-07T04:06:23;7.65;;;4.80;;
78901;SDS011;70441;44.758;37.686;2023-08-07T04:07:24;7.00;;;4.32;;
78901;SDS011;70441;44.758;37.686;2023-08-07T04:09:28;8.32;;;4.50;;
78901;SDS011;70441;44.758;37.686;2023-08-07T04:10:29;11.27;;;4.85;;
78901;SDS011;70441;44.758;37.686;2023-08-07T04:11:31;7.60;;;4.65;;
78901;SDS011;70441;44.758;37.686;2023-08-07T04:12:34;12.57;;;4.90;;
78901;SDS011;70441;44.758;37.686;2023-08-07T04:13:35;8.05;;;4.00;;
78901;SDS011;70441;44.758;37.686;2023-08-07T04:14:37;17.52;;;5.20;;
78901;SDS011;70441;44.758;37.686;2023-08-07T04:15:38;7.47;;;4.30;;
78901;SDS011;70441;44.758;37.686;2023-08-07T04:16:39;7.22;;;4.28;;
78901;SDS011;70441;44.758;37.686;2023-08-07T04:17:42;14.02;;;5.13;;
78901;SDS011;70441;44.758;37.686;2023-08-07T04:18:43;7.50;;;4.18;;
78901;SDS011;70441;44.758;37.686;2023-08-07T04:19:45;14.65;;;4.97;;
78901;SDS011;70441;44.758;37.686;2023-08-07T04:20:52;11.80;;;4.57;;
78901;SDS011;70441;44.758;37.686;2023-08-07T04:21:55;8.23;;;4.20;;
78901;SDS011;70441;44.758;37.686;2023-08-07T04:22:56;7.40;;;3.80;;
78901;SDS011;70441;44.758;37.686;2023-08-07T04:23:57;80.32;;;18.00;;
78901;SDS011;70441;44.758;37.686;2023-08-07T04:25:01;15.32;;;4.72;;
78901;SDS011;70441;44.758;37.686;2023-08-07T04:26:02;6.65;;;4.45;;
78901;SDS011;70441;44.758;37.686;2023-08-07T04:27:04;12.27;;;4.47;;
78901;SDS011;70441;44.758;37.686;2023-08-07T04:28:07;9.77;;;3.80;;
78901;SDS011;70441;44.758;37.686;2023-08-07T04:29:08;10.35;;;4.40;;
78901;SDS011;70441;44.758;37.686;2023-08-07T04:30:10;8.10;;;4.22;;
78901;SDS011;70441;44.758;37.686;2023-08-07T04:31:11;8.88;;;4.95;;
78901;SDS011;70441;44.758;37.686;2023-08-07T04:32:14;7.55;;;4.10;;
78901;SDS011;70441;44.758;37.686;2023-08-07T04:33:15;6.60;;;3.58;;
78901;SDS011;70441;44.758;37.686;2023-08-07T04:34:17;10.38;;;4.00;;
78901;SDS011;70441;44.758;37.686;2023-08-07T04:35:18;6.82;;;3.78;;
78901;SDS011;70441;44.758;37.686;2023-08-07T04:36:19;6.97;;;3.75;;
78901;SDS011;70441;44.758;37.686;2023-08-07T04:37:21;8.52;;;4.05;;
78901;SDS011;70441;44.758;37.686;2023-08-07T04:38:23;6.03;;;3.63;;
78901;SDS011;70441;44.758;37.686;2023-08-07T04:39:24;11.05;;;4.35;;
78901;SDS011;70441;44.758;37.686;2023-08-07T04:40:25;9.30;;;3.90;;
78901;SDS011;70441;44.758;37.686;2023-08-07T04:41:27;8.95;;;4.05;;
78901;SDS011;70441;44.758;37.686;2023-08-07T04:42:28;8.07;;;3.40;;
78901;SDS011;70441;44.758;37.686;2023-08-07T04:43:29;20.02;;;5.72;;
78901;SDS011;70441;44.758;37.686;2023-08-07T04:44:31;10.38;;;4.85;;
78901;SDS011;70441;44.758;37.686;2023-08-07T04:45:32;8.75;;;3.80;;
78901;SDS011;70441;44.758;37.686;2023-08-07T04:46:33;7.20;;;3.40;;
78901;SDS011;70441;44.758;37.686;2023-08-07T04:47:35;10.05;;;3.80;;
78901;SDS011;70441;44.758;37.686;2023-08-07T04:48:36;7.57;;;3.22;;
78901;SDS011;70441;44.758;37.686;2023-08-07T04:49:37;10.02;;;3.72;;
78901;SDS011;70441;44.758;37.686;2023-08-07T04:50:39;6.53;;;3.20;;
78901;SDS011;70441;44.758;37.686;2023-08-07T04:51:40;20.50;;;6.18;;
78901;SDS011;70441;44.758;37.686;2023-08-07T04:52:41;7.40;;;3.50;;
78901;SDS011;70441;44.758;37.686;2023-08-07T04:53:43;10.55;;;3.70;;
78901;SDS011;70441;44.758;37.686;2023-08-07T04:54:44;10.40;;;3.38;;
78901;SDS011;70441;44.758;37.686;2023-08-07T04:55:45;10.68;;;3.10;;
78901;SDS011;70441;44.758;37.686;2023-08-07T04:56:47;9.27;;;3.38;;
78901;SDS011;70441;44.758;37.686;2023-08-07T04:57:48;13.57;;;4.40;;
78901;SDS011;70441;44.758;37.686;2023-08-07T04:58:51;21.55;;;3.95;;
78901;SDS011;70441;44.758;37.686;2023-08-07T04:59:52;10.10;;;4.10;;
78901;SDS011;70441;44.758;37.686;2023-08-07T05:00:57;8.25;;;3.45;;
78901;SDS011;70441;44.758;37.686;2023-08-07T05:01:59;6.25;;;2.97;;
78901;SDS011;70441;44.758;37.686;2023-08-07T05:03:00;6.75;;;3.03;;
78901;SDS011;70441;44.758;37.686;2023-08-07T05:04:02;7.68;;;3.38;;
78901;SDS011;70441;44.758;37.686;2023-08-07T05:05:03;30.58;;;7.00;;
78901;SDS011;70441;44.758;37.686;2023-08-07T05:06:05;10.77;;;3.67;;
78901;SDS011;70441;44.758;37.686;2023-08-07T05:07:06;9.82;;;3.60;;
78901;SDS011;70441;44.758;37.686;2023-08-07T05:08:07;6.88;;;3.28;;
78901;SDS011;70441;44.758;37.686;2023-08-07T05:09:09;8.88;;;3.40;;
78901;SDS011;70441;44.758;37.686;2023-08-07T05:10:10;8.75;;;3.10;;
78901;SDS011;70441;44.758;37.686;2023-08-07T05:11:12;5.95;;;2.90;;
78901;SDS011;70441;44.758;37.686;2023-08-07T05:12:13;6.22;;;3.00;;
78901;SDS011;70441;44.758;37.686;2023-08-07T05:13:14;6.38;;;3.20;;
78901;SDS011;70441;44.758;37.686;2023-08-07T05:14:15;8.05;;;2.85;;
78901;SDS011;70441;44.758;37.686;2023-08-07T05:15:17;7.60;;;3.38;;
78901;SDS011;70441;44.758;37.686;2023-08-07T05:16:18;8.50;;;3.33;;
78901;SDS011;70441;44.758;37.686;2023-08-07T05:17:19;7.47;;;3.08;;
78901;SDS011;70441;44.758;37.686;2023-08-07T05:18:21;7.10;;;3.00;;
78901;SDS011;70441;44.758;37.686;2023-08-07T05:19:22;8.90;;;3.53;;
78901;SDS011;70441;44.758;37.686;2023-08-07T05:20:23;8.00;;;3.08;;
78901;SDS011;70441;44.758;37.686;2023-08-07T05:21:24;8.00;;;2.90;;
78901;SDS011;70441;44.758;37.686;2023-08-07T05:22:26;6.78;;;3.20;;
78901;SDS011;70441;44.758;37.686;2023-08-07T05:23:27;12.07;;;3.53;;
78901;SDS011;70441;44.758;37.686;2023-08-07T05:24:28;10.80;;;3.65;;
78901;SDS011;70441;44.758;37.686;2023-08-07T05:25:35;21.58;;;5.20;;
78901;SDS011;70441;44.758;37.686;2023-08-07T05:26:36;16.63;;;4.65;;
78901;SDS011;70441;44.758;37.686;2023-08-07T05:27:37;11.30;;;3.33;;
78901;SDS011;70441;44.758;37.686;2023-08-07T05:28:38;10.90;;;3.70;;
78901;SDS011;70441;44.758;37.686;2023-08-07T05:29:40;14.52;;;3.85;;
78901;SDS011;70441;44.758;37.686;2023-08-07T05:30:44;19.50;;;3.72;;
78901;SDS011;70441;44.758;37.686;2023-08-07T05:31:45;12.63;;;3.50;;
78901;SDS011;70441;44.758;37.686;2023-08-07T05:32:47;8.82;;;3.28;;
78901;SDS011;70441;44.758;37.686;2023-08-07T05:33:49;5.15;;;2.92;;
78901;SDS011;70441;44.758;37.686;2023-08-07T05:34:50;7.38;;;3.45;;
78901;SDS011;70441;44.758;37.686;2023-08-07T05:35:51;10.80;;;3.63;;
78901;SDS011;70441;44.758;37.686;2023-08-07T05:36:53;10.98;;;3.35;;
78901;SDS011;70441;44.758;37.686;2023-08-07T05:37:55;12.23;;;3.75;;
78901;SDS011;70441;44.758;37.686;2023-08-07T05:38:56;7.72;;;4.07;;
78901;SDS011;70441;44.758;37.686;2023-08-07T05:39:58;14.88;;;4.40;;
78901;SDS011;70441;44.758;37.686;2023-08-07T05:40:59;8.90;;;3.80;;
78901;SDS011;70441;44.758;37.686;2023-08-07T05:42:01;13.18;;;3.63;;
78901;SDS011;70441;44.758;37.686;2023-08-07T05:43:02;7.85;;;3.67;;
78901;SDS011;70441;44.758;37.686;2023-08-07T05:44:04;7.57;;;3.72;;
78901;SDS011;70441;44.758;37.686;2023-08-07T05:45:06;7.63;;;3.42;;
78901;SDS011;70441;44.758;37.686;2023-08-07T05:46:09;11.23;;;4.28;;
78901;SDS011;70441;44.758;37.686;2023-08-07T05:47:10;7.30;;;3.20;;
78901;SDS011;70441;44.758;37.686;2023-08-07T05:48:11;6.47;;;3.40;;
78901;SDS011;70441;44.758;37.686;2023-08-07T05:49:13;9.13;;;3.58;;
78901;SDS011;70441;44.758;37.686;2023-08-07T05:50:14;7.25;;;3.50;;
78901;SDS011;70441;44.758;37.686;2023-08-07T05:51:15;14.32;;;4.30;;
78901;SDS011;70441;44.758;37.686;2023-08-07T05:52:17;6.22;;;2.90;;
78901;SDS011;70441;44.758;37.686;2023-08-07T05:53:19;6.28;;;3.50;;
78901;SDS011;70441;44.758;37.686;2023-08-07T05:54:21;10.60;;;3.60;;
78901;SDS011;70441;44.758;37.686;2023-08-07T05:55:23;9.68;;;3.85;;
78901;SDS011;70441;44.758;37.686;2023-08-07T05:56:24;11.75;;;3.50;;
78901;SDS011;70441;44.758;37.686;2023-08-07T05:57:26;9.95;;;3.83;;
78901;SDS011;70441;44.758;37.686;2023-08-07T05:58:28;13.18;;;3.70;;
78901;SDS011;70441;44.758;37.686;2023-08-07T05:59:29;7.32;;;3.42;;
78901;SDS011;70441;44.758;37.686;2023-08-07T06:00:31;6.70;;;3.20;;
78901;SDS011;70441;44.758;37.686;2023-08-07T06:01:32;10.82;;;3.45;;
78901;SDS011;70441;44.758;37.686;2023-08-07T06:02:34;6.38;;;3.35;;
78901;SDS011;70441;44.758;37.686;2023-08-07T06:03:35;6.22;;;3.30;;
78901;SDS011;70441;44.758;37.686;2023-08-07T06:04:37;7.03;;;3.20;;
78901;SDS011;70441;44.758;37.686;2023-08-07T06:05:39;8.40;;;3.33;;
78901;SDS011;70441;44.758;37.686;2023-08-07T06:06:40;10.95;;;3.33;;
78901;SDS011;70441;44.758;37.686;2023-08-07T06:07:43;9.30;;;2.92;;
78901;SDS011;70441;44.758;37.686;2023-08-07T06:08:44;14.60;;;3.83;;
78901;SDS011;70441;44.758;37.686;2023-08-07T06:09:46;11.60;;;3.25;;
78901;SDS011;70441;44.758;37.686;2023-08-07T06:10:47;9.23;;;3.05;;
78901;SDS011;70441;44.758;37.686;2023-08-07T06:11:48;8.07;;;3.10;;
78901;SDS011;70441;44.758;37.686;2023-08-07T06:12:50;6.80;;;3.20;;
78901;SDS011;70441;44.758;37.686;2023-08-07T06:13:51;21.58;;;5.68;;
78901;SDS011;70441;44.758;37.686;2023-08-07T06:14:52;15.43;;;5.85;;
78901;SDS011;70441;44.758;37.686;2023-08-07T06:15:54;11.95;;;3.45;;
78901;SDS011;70441;44.758;37.686;2023-08-07T06:16:55;11.73;;;4.22;;
78901;SDS011;70441;44.758;37.686;2023-08-07T06:17:58;6.45;;;3.53;;
78901;SDS011;70441;44.758;37.686;2023-08-07T06:19:00;9.70;;;3.50;;
78901;SDS011;70441;44.758;37.686;2023-08-07T06:20:01;5.43;;;2.92;;
78901;SDS011;70441;44.758;37.686;2023-08-07T06:21:05;7.78;;;3.13;;
78901;SDS011;70441;44.758;37.686;2023-08-07T06:22:07;5.65;;;3.45;;
78901;SDS011;70441;44.758;37.686;2023-08-07T06:23:08;8.63;;;3.17;;